createdAt,value
2023-01-10T00:08:57.679Z,5.4
2023-01-10T00:18:59.916Z,5.3
2023-01-10T00:29:01.757Z,5.3
2023-01-10T00:39:03.782Z,5.4
2023-01-10T00:49:05.669Z,5.4
2023-01-10T00:59:08.244Z,5.3
2023-01-10T01:09:10.550Z,5.3
2023-01-10T01:19:12.941Z,5.3
2023-01-10T01:29:17.328Z,5.3
2023-01-10T01:39:17.889Z,5.3
2023-01-10T01:49:20.235Z,5.3
2023-01-10T01:59:21.919Z,5.3
2023-01-10T02:09:24.211Z,5.3
2023-01-10T02:19:26.504Z,5.3
2023-01-10T02:29:28.566Z,5.3
2023-01-10T02:39:30.532Z,5.2
2023-01-10T02:49:32.239Z,5.4
2023-01-10T02:59:34.467Z,5.4
2023-01-10T03:19:38.722Z,5.4
2023-01-10T03:29:40.529Z,5.4
2023-01-10T03:39:43.021Z,5.3
2023-01-10T03:49:45.464Z,5.1
2023-01-10T03:59:47.598Z,4.9
2023-01-10T04:09:49.297Z,4.8
2023-01-10T04:19:51.623Z,4.8
2023-01-10T04:29:53.816Z,4.6
2023-01-10T04:39:55.828Z,4.6
2023-01-10T04:49:57.611Z,4.7
2023-01-10T05:10:02.509Z,4.7
2023-01-10T05:20:04.253Z,4.7
2023-01-10T05:30:06.272Z,4.7
2023-01-10T05:40:08.347Z,4.6
2023-01-10T05:50:10.986Z,4.6
2023-01-10T06:00:13.236Z,4.6
2023-01-10T06:10:15.224Z,4.4
2023-01-10T06:20:17.534Z,4.3
2023-01-10T06:30:19.701Z,4
2023-01-10T06:40:21.628Z,3.9
2023-01-10T06:50:23.725Z,4
2023-01-10T07:00:25.956Z,4.1
2023-01-10T07:10:28.443Z,4
2023-01-10T07:20:30.772Z,4.2
2023-01-10T07:30:32.579Z,4.5
2023-01-10T07:40:34.736Z,4.6
2023-01-10T08:00:39.177Z,4.5
2023-01-10T08:10:41.296Z,4.4
2023-01-10T08:20:43.212Z,4.5
2023-01-10T08:30:45.868Z,4.5
2023-01-10T08:40:48.186Z,4.4
2023-01-10T08:50:50.164Z,4.7
2023-01-10T09:00:52.640Z,5
2023-01-10T09:10:54.575Z,5.1
2023-01-10T09:20:56.735Z,5.2
2023-01-10T09:30:59.089Z,5.3
2023-01-10T09:41:00.907Z,5.6
2023-01-10T09:51:03.461Z,5.7
2023-01-10T10:01:06.018Z,5.5
2023-01-10T10:21:09.946Z,5.8
2023-01-10T10:31:12.593Z,5.9
2023-01-10T11:01:18.678Z,6.2
2023-01-10T11:41:34.098Z,6.5
2023-01-10T11:51:35.808Z,6.5
2023-01-10T12:01:38.236Z,6.5
2023-01-10T12:11:40.152Z,6.6
2023-01-10T12:21:42.081Z,6.7
2023-01-10T12:31:43.787Z,6.8
2023-01-10T12:41:46.320Z,7
2023-01-10T12:51:48.599Z,7.1
2023-01-10T13:01:51.135Z,7.1
2023-01-10T13:21:55.028Z,7.3
2023-01-10T13:41:59.579Z,7.4
2023-01-10T13:52:01.850Z,7.4
2023-01-10T14:02:04.176Z,7.4
2023-01-10T14:22:08.363Z,7.4
2023-01-10T14:32:10.929Z,7.3
2023-01-10T14:42:12.647Z,7.3
2023-01-10T14:52:14.773Z,7.2
2023-01-10T15:02:17.097Z,7.2
2023-01-10T15:12:18.676Z,7.1
2023-01-10T15:22:20.470Z,7
2023-01-10T15:42:24.966Z,6.8
2023-01-10T15:52:26.868Z,6.8
2023-01-10T16:02:29.739Z,6.8
2023-01-10T16:12:31.995Z,6.8
2023-01-10T17:02:42.574Z,6.2
2023-01-10T17:12:44.235Z,5.9
2023-01-10T17:22:46.477Z,5.6
2023-01-10T17:32:48.533Z,5.2
2023-01-10T17:52:52.498Z,5.2
2023-01-10T18:22:59.364Z,5.3
2023-01-10T18:33:01.860Z,5.3
2023-01-10T18:53:10.118Z,5.3
2023-01-10T19:03:08.050Z,5.5
2023-01-10T19:13:10.409Z,5.6
2023-01-10T19:23:12.598Z,5.7
2023-01-10T19:33:14.801Z,5.8
2023-01-10T19:43:16.503Z,5.8
2023-01-10T19:53:18.951Z,5.8
2023-01-10T20:03:21.081Z,5.9
2023-01-10T20:13:22.742Z,6.1
2023-01-10T20:23:24.875Z,6.2
2023-01-10T20:33:26.752Z,6.1
2023-01-10T20:43:28.885Z,6
2023-01-10T20:53:31.378Z,5.9
2023-01-10T21:03:33.060Z,5.8
2023-01-10T21:13:34.917Z,5.9
2023-01-10T21:23:36.827Z,6.1
2023-01-10T21:33:38.570Z,6.4
2023-01-10T21:43:42.470Z,6.6
2023-01-10T21:53:42.319Z,6.8
2023-01-10T22:03:44.193Z,7
2023-01-10T22:13:46.055Z,7.1
2023-01-10T22:23:48.651Z,7.2
2023-01-10T22:33:50.762Z,7.3
2023-01-10T22:43:52.617Z,7.4
2023-01-10T22:53:54.361Z,7.1
2023-01-10T23:03:56.943Z,7
2023-01-10T23:24:01.841Z,7.2
2023-01-10T23:34:04.418Z,7.4
2023-01-10T23:44:06.507Z,7.4
2023-01-10T23:54:08.527Z,7.6
